sensor_id;sensor_type;location;lat;lon;timestamp;P1;durP1;ratioP1;P2;durP2;ratioP2
16892;SDS011;8563;52.242;9.098;2022-10-16T00:01:58;1.33;;;0.67;;
16892;SDS011;8563;52.242;9.098;2022-10-16T00:04:31;3.43;;;1.10;;
16892;SDS011;8563;52.242;9.098;2022-10-16T00:07:04;1.80;;;1.00;;
16892;SDS011;8563;52.242;9.098;2022-10-16T00:09:37;1.07;;;0.80;;
16892;SDS011;8563;52.242;9.098;2022-10-16T00:12:10;1.10;;;0.90;;
16892;SDS011;8563;52.242;9.098;2022-10-16T00:14:43;0.90;;;0.80;;
16892;SDS011;8563;52.242;9.098;2022-10-16T00:17:18;1.17;;;1.03;;
16892;SDS011;8563;52.242;9.098;2022-10-16T00:19:50;2.00;;;0.90;;
16892;SDS011;8563;52.242;9.098;2022-10-16T00:22:23;3.10;;;1.30;;
16892;SDS011;8563;52.242;9.098;2022-10-16T00:24:56;1.10;;;0.83;;
16892;SDS011;8563;52.242;9.098;2022-10-16T00:27:29;1.97;;;1.17;;
16892;SDS011;8563;52.242;9.098;2022-10-16T00:30:03;2.97;;;1.00;;
16892;SDS011;8563;52.242;9.098;2022-10-16T00:32:37;5.43;;;1.10;;
16892;SDS011;8563;52.242;9.098;2022-10-16T00:35:10;4.10;;;1.67;;
16892;SDS011;8563;52.242;9.098;2022-10-16T00:37:43;2.00;;;1.10;;
16892;SDS011;8563;52.242;9.098;2022-10-16T00:40:16;2.63;;;1.50;;
16892;SDS011;8563;52.242;9.098;2022-10-16T00:42:49;4.40;;;1.40;;
16892;SDS011;8563;52.242;9.098;2022-10-16T00:45:22;2.97;;;1.40;;
16892;SDS011;8563;52.242;9.098;2022-10-16T00:47:56;2.60;;;1.27;;
16892;SDS011;8563;52.242;9.098;2022-10-16T00:50:30;1.47;;;1.17;;
16892;SDS011;8563;52.242;9.098;2022-10-16T00:53:03;3.00;;;1.67;;
16892;SDS011;8563;52.242;9.098;2022-10-16T00:55:37;3.17;;;1.70;;
16892;SDS011;8563;52.242;9.098;2022-10-16T00:58:10;2.03;;;1.53;;
16892;SDS011;8563;52.242;9.098;2022-10-16T01:00:43;2.53;;;1.50;;
16892;SDS011;8563;52.242;9.098;2022-10-16T01:03:25;3.57;;;1.57;;
16892;SDS011;8563;52.242;9.098;2022-10-16T01:06:08;3.37;;;1.60;;
16892;SDS011;8563;52.242;9.098;2022-10-16T01:08:47;1.50;;;1.40;;
16892;SDS011;8563;52.242;9.098;2022-10-16T01:11:22;2.10;;;1.40;;
16892;SDS011;8563;52.242;9.098;2022-10-16T01:14:00;3.93;;;1.53;;
16892;SDS011;8563;52.242;9.098;2022-10-16T01:16:34;3.40;;;1.80;;
16892;SDS011;8563;52.242;9.098;2022-10-16T01:19:12;3.33;;;1.50;;
16892;SDS011;8563;52.242;9.098;2022-10-16T01:21:47;6.20;;;2.00;;
16892;SDS011;8563;52.242;9.098;2022-10-16T01:24:23;3.17;;;1.70;;
16892;SDS011;8563;52.242;9.098;2022-10-16T01:27:04;2.47;;;1.50;;
16892;SDS011;8563;52.242;9.098;2022-10-16T01:29:39;4.33;;;1.50;;
16892;SDS011;8563;52.242;9.098;2022-10-16T01:32:16;2.93;;;1.47;;
16892;SDS011;8563;52.242;9.098;2022-10-16T01:34:52;2.30;;;1.40;;
16892;SDS011;8563;52.242;9.098;2022-10-16T01:37:29;2.73;;;1.40;;
16892;SDS011;8563;52.242;9.098;2022-10-16T01:40:05;3.53;;;1.33;;
16892;SDS011;8563;52.242;9.098;2022-10-16T01:42:41;3.27;;;1.50;;
16892;SDS011;8563;52.242;9.098;2022-10-16T01:45:15;1.97;;;1.50;;
16892;SDS011;8563;52.242;9.098;2022-10-16T01:47:50;3.03;;;1.30;;
16892;SDS011;8563;52.242;9.098;2022-10-16T01:50:24;7.67;;;1.63;;
16892;SDS011;8563;52.242;9.098;2022-10-16T01:52:58;2.83;;;1.47;;
16892;SDS011;8563;52.242;9.098;2022-10-16T01:55:32;4.47;;;1.77;;
16892;SDS011;8563;52.242;9.098;2022-10-16T01:58:07;2.60;;;1.50;;
16892;SDS011;8563;52.242;9.098;2022-10-16T02:00:42;3.53;;;1.60;;
16892;SDS011;8563;52.242;9.098;2022-10-16T02:03:17;2.47;;;1.43;;
16892;SDS011;8563;52.242;9.098;2022-10-16T02:05:51;4.17;;;1.47;;
16892;SDS011;8563;52.242;9.098;2022-10-16T02:08:25;3.90;;;2.03;;
16892;SDS011;8563;52.242;9.098;2022-10-16T02:10:59;3.70;;;1.90;;
16892;SDS011;8563;52.242;9.098;2022-10-16T02:17:12;3.47;;;1.80;;
16892;SDS011;8563;52.242;9.098;2022-10-16T02:19:46;3.17;;;2.00;;
16892;SDS011;8563;52.242;9.098;2022-10-16T02:22:21;3.70;;;1.60;;
16892;SDS011;8563;52.242;9.098;2022-10-16T02:24:56;3.97;;;2.20;;
16892;SDS011;8563;52.242;9.098;2022-10-16T02:27:31;5.97;;;2.03;;
16892;SDS011;8563;52.242;9.098;2022-10-16T02:30:06;4.20;;;1.90;;
16892;SDS011;8563;52.242;9.098;2022-10-16T02:32:42;4.83;;;2.17;;
16892;SDS011;8563;52.242;9.098;2022-10-16T02:35:16;6.30;;;2.30;;
16892;SDS011;8563;52.242;9.098;2022-10-16T02:37:49;3.77;;;2.17;;
16892;SDS011;8563;52.242;9.098;2022-10-16T02:40:22;3.83;;;2.00;;
16892;SDS011;8563;52.242;9.098;2022-10-16T02:42:56;5.03;;;2.33;;
16892;SDS011;8563;52.242;9.098;2022-10-16T02:45:28;4.43;;;2.40;;
16892;SDS011;8563;52.242;9.098;2022-10-16T02:48:03;4.97;;;2.50;;
16892;SDS011;8563;52.242;9.098;2022-10-16T02:50:36;3.83;;;1.90;;
16892;SDS011;8563;52.242;9.098;2022-10-16T02:53:09;3.10;;;1.90;;
16892;SDS011;8563;52.242;9.098;2022-10-16T02:55:41;3.67;;;1.90;;
16892;SDS011;8563;52.242;9.098;2022-10-16T02:58:14;8.07;;;2.37;;
16892;SDS011;8563;52.242;9.098;2022-10-16T03:00:47;2.87;;;1.80;;
16892;SDS011;8563;52.242;9.098;2022-10-16T03:03:21;3.83;;;2.00;;
16892;SDS011;8563;52.242;9.098;2022-10-16T03:05:54;4.20;;;2.30;;
16892;SDS011;8563;52.242;9.098;2022-10-16T03:08:27;9.10;;;2.47;;
16892;SDS011;8563;52.242;9.098;2022-10-16T03:11:00;2.70;;;1.77;;
16892;SDS011;8563;52.242;9.098;2022-10-16T03:13:33;5.70;;;2.20;;
16892;SDS011;8563;52.242;9.098;2022-10-16T03:16:06;4.07;;;2.50;;
16892;SDS011;8563;52.242;9.098;2022-10-16T03:18:40;2.27;;;2.00;;
16892;SDS011;8563;52.242;9.098;2022-10-16T03:21:13;2.90;;;2.00;;
16892;SDS011;8563;52.242;9.098;2022-10-16T03:23:47;4.93;;;2.20;;
16892;SDS011;8563;52.242;9.098;2022-10-16T03:26:19;7.33;;;2.43;;
16892;SDS011;8563;52.242;9.098;2022-10-16T03:28:52;4.40;;;2.30;;
16892;SDS011;8563;52.242;9.098;2022-10-16T03:31:25;4.17;;;2.33;;
16892;SDS011;8563;52.242;9.098;2022-10-16T03:34:00;4.50;;;2.30;;
16892;SDS011;8563;52.242;9.098;2022-10-16T03:36:33;2.73;;;2.10;;
16892;SDS011;8563;52.242;9.098;2022-10-16T03:39:05;5.23;;;1.93;;
16892;SDS011;8563;52.242;9.098;2022-10-16T03:41:38;4.77;;;2.03;;
16892;SDS011;8563;52.242;9.098;2022-10-16T03:44:11;4.00;;;2.17;;
16892;SDS011;8563;52.242;9.098;2022-10-16T03:46:44;4.77;;;2.37;;
16892;SDS011;8563;52.242;9.098;2022-10-16T03:49:18;5.83;;;2.20;;
16892;SDS011;8563;52.242;9.098;2022-10-16T03:51:51;4.33;;;2.63;;
16892;SDS011;8563;52.242;9.098;2022-10-16T03:54:24;6.40;;;2.10;;
16892;SDS011;8563;52.242;9.098;2022-10-16T03:56:57;4.50;;;2.10;;
16892;SDS011;8563;52.242;9.098;2022-10-16T03:59:30;4.50;;;2.00;;
16892;SDS011;8563;52.242;9.098;2022-10-16T04:02:02;6.30;;;2.03;;
16892;SDS011;8563;52.242;9.098;2022-10-16T04:04:37;3.00;;;2.00;;
16892;SDS011;8563;52.242;9.098;2022-10-16T04:07:09;3.43;;;1.87;;
16892;SDS011;8563;52.242;9.098;2022-10-16T04:09:43;2.33;;;1.90;;
16892;SDS011;8563;52.242;9.098;2022-10-16T04:12:15;5.37;;;2.07;;
16892;SDS011;8563;52.242;9.098;2022-10-16T04:14:48;4.47;;;1.90;;
16892;SDS011;8563;52.242;9.098;2022-10-16T04:17:21;4.67;;;1.80;;
16892;SDS011;8563;52.242;9.098;2022-10-16T04:19:55;7.40;;;2.20;;
16892;SDS011;8563;52.242;9.098;2022-10-16T04:22:28;3.13;;;2.20;;
16892;SDS011;8563;52.242;9.098;2022-10-16T04:25:01;3.03;;;2.00;;
16892;SDS011;8563;52.242;9.098;2022-10-16T04:27:33;3.20;;;2.00;;
16892;SDS011;8563;52.242;9.098;2022-10-16T04:30:06;4.37;;;2.00;;
16892;SDS011;8563;52.242;9.098;2022-10-16T04:32:40;5.30;;;2.10;;
16892;SDS011;8563;52.242;9.098;2022-10-16T04:35:15;2.37;;;1.60;;
16892;SDS011;8563;52.242;9.098;2022-10-16T04:37:47;5.53;;;2.03;;
16892;SDS011;8563;52.242;9.098;2022-10-16T04:40:20;4.17;;;2.10;;
16892;SDS011;8563;52.242;9.098;2022-10-16T04:42:53;1.83;;;1.50;;
16892;SDS011;8563;52.242;9.098;2022-10-16T04:45:26;2.60;;;1.80;;
16892;SDS011;8563;52.242;9.098;2022-10-16T04:47:59;3.53;;;1.80;;
16892;SDS011;8563;52.242;9.098;2022-10-16T04:50:34;3.00;;;1.60;;
16892;SDS011;8563;52.242;9.098;2022-10-16T04:53:10;2.57;;;2.10;;
16892;SDS011;8563;52.242;9.098;2022-10-16T04:55:43;2.40;;;1.70;;
16892;SDS011;8563;52.242;9.098;2022-10-16T04:58:16;2.87;;;1.73;;
16892;SDS011;8563;52.242;9.098;2022-10-16T05:00:48;2.67;;;1.80;;
16892;SDS011;8563;52.242;9.098;2022-10-16T05:03:21;8.00;;;1.80;;
16892;SDS011;8563;52.242;9.098;2022-10-16T05:05:55;3.90;;;2.00;;
16892;SDS011;8563;52.242;9.098;2022-10-16T05:08:29;1.90;;;1.60;;
16892;SDS011;8563;52.242;9.098;2022-10-16T05:11:01;5.23;;;1.70;;
16892;SDS011;8563;52.242;9.098;2022-10-16T05:13:34;2.47;;;1.57;;
16892;SDS011;8563;52.242;9.098;2022-10-16T05:16:07;3.17;;;1.60;;
16892;SDS011;8563;52.242;9.098;2022-10-16T05:18:40;4.00;;;1.53;;
16892;SDS011;8563;52.242;9.098;2022-10-16T05:21:14;1.47;;;1.27;;
16892;SDS011;8563;52.242;9.098;2022-10-16T05:23:47;3.60;;;1.77;;
16892;SDS011;8563;52.242;9.098;2022-10-16T05:26:20;3.57;;;1.50;;
16892;SDS011;8563;52.242;9.098;2022-10-16T05:28:52;4.97;;;1.50;;
16892;SDS011;8563;52.242;9.098;2022-10-16T05:31:25;1.60;;;1.40;;
16892;SDS011;8563;52.242;9.098;2022-10-16T05:33:58;2.47;;;1.40;;
16892;SDS011;8563;52.242;9.098;2022-10-16T05:36:33;4.00;;;1.70;;
16892;SDS011;8563;52.242;9.098;2022-10-16T05:39:06;4.90;;;1.63;;
16892;SDS011;8563;52.242;9.098;2022-10-16T05:41:38;2.73;;;1.30;;
16892;SDS011;8563;52.242;9.098;2022-10-16T05:44:11;2.90;;;1.40;;
16892;SDS011;8563;52.242;9.098;2022-10-16T05:46:45;2.70;;;1.33;;
16892;SDS011;8563;52.242;9.098;2022-10-16T05:49:18;2.73;;;1.10;;
16892;SDS011;8563;52.242;9.098;2022-10-16T05:51:53;1.90;;;1.40;;
16892;SDS011;8563;52.242;9.098;2022-10-16T05:54:25;3.03;;;1.27;;
16892;SDS011;8563;52.242;9.098;2022-10-16T05:56:58;2.60;;;1.30;;
16892;SDS011;8563;52.242;9.098;2022-10-16T05:59:32;3.27;;;1.30;;
16892;SDS011;8563;52.242;9.098;2022-10-16T06:02:05;2.33;;;1.13;;
16892;SDS011;8563;52.242;9.098;2022-10-16T06:04:38;2.37;;;1.17;;
16892;SDS011;8563;52.242;9.098;2022-10-16T06:07:12;2.50;;;1.17;;
16892;SDS011;8563;52.242;9.098;2022-10-16T06:09:47;2.53;;;1.30;;
16892;SDS011;8563;52.242;9.098;2022-10-16T06:12:20;2.07;;;1.23;;
16892;SDS011;8563;52.242;9.098;2022-10-16T06:14:53;1.80;;;1.00;;
16892;SDS011;8563;52.242;9.098;2022-10-16T06:17:25;4.97;;;1.20;;
16892;SDS011;8563;52.242;9.098;2022-10-16T06:19:58;1.80;;;1.17;;
16892;SDS011;8563;52.242;9.098;2022-10-16T06:22:32;2.67;;;0.90;;
16892;SDS011;8563;52.242;9.098;2022-10-16T06:25:05;2.20;;;0.97;;
16892;SDS011;8563;52.242;9.098;2022-10-16T06:27:39;2.00;;;1.00;;
16892;SDS011;8563;52.242;9.098;2022-10-16T06:30:12;2.63;;;1.00;;
16892;SDS011;8563;52.242;9.098;2022-10-16T06:32:44;2.07;;;0.80;;
16892;SDS011;8563;52.242;9.098;2022-10-16T06:35:17;1.87;;;0.77;;
16892;SDS011;8563;52.242;9.098;2022-10-16T06:37:52;1.57;;;0.80;;
16892;SDS011;8563;52.242;9.098;2022-10-16T06:40:25;2.37;;;0.97;;
16892;SDS011;8563;52.242;9.098;2022-10-16T06:42:57;2.07;;;1.00;;
16892;SDS011;8563;52.242;9.098;2022-10-16T06:45:30;4.83;;;1.20;;
16892;SDS011;8563;52.242;9.098;2022-10-16T06:48:03;3.27;;;0.90;;
16892;SDS011;8563;52.242;9.098;2022-10-16T06:50:36;1.90;;;0.90;;
16892;SDS011;8563;52.242;9.098;2022-10-16T06:53:10;1.73;;;1.10;;
16892;SDS011;8563;52.242;9.098;2022-10-16T06:55:43;2.87;;;1.17;;
16892;SDS011;8563;52.242;9.098;2022-10-16T06:58:16;3.30;;;0.93;;
16892;SDS011;8563;52.242;9.098;2022-10-16T07:00:50;1.10;;;0.80;;
16892;SDS011;8563;52.242;9.098;2022-10-16T07:03:27;2.23;;;0.90;;
16892;SDS011;8563;52.242;9.098;2022-10-16T07:06:01;1.10;;;1.00;;
16892;SDS011;8563;52.242;9.098;2022-10-16T07:08:36;1.97;;;0.77;;
16892;SDS011;8563;52.242;9.098;2022-10-16T07:11:10;2.77;;;0.90;;
16892;SDS011;8563;52.242;9.098;2022-10-16T07:13:43;1.67;;;0.70;;
16892;SDS011;8563;52.242;9.098;2022-10-16T07:16:17;2.53;;;0.80;;
16892;SDS011;8563;52.242;9.098;2022-10-16T07:18:51;1.90;;;0.80;;
16892;SDS011;8563;52.242;9.098;2022-10-16T07:21:29;2.10;;;0.83;;
16892;SDS011;8563;52.242;9.098;2022-10-16T07:24:10;1.90;;;0.90;;
16892;SDS011;8563;52.242;9.098;2022-10-16T07:26:44;1.17;;;0.90;;
16892;SDS011;8563;52.242;9.098;2022-10-16T07:29:18;1.47;;;0.90;;
16892;SDS011;8563;52.242;9.098;2022-10-16T07:31:51;2.33;;;1.20;;
16892;SDS011;8563;52.242;9.098;2022-10-16T07:34:23;1.47;;;0.90;;
16892;SDS011;8563;52.242;9.098;2022-10-16T07:37:10;1.37;;;0.70;;
16892;SDS011;8563;52.242;9.098;2022-10-16T07:39:44;5.03;;;0.80;;
16892;SDS011;8563;52.242;9.098;2022-10-16T07:42:17;3.30;;;0.97;;
16892;SDS011;8563;52.242;9.098;2022-10-16T07:44:50;2.43;;;0.87;;
16892;SDS011;8563;52.242;9.098;2022-10-16T07:47:23;3.03;;;0.90;;
16892;SDS011;8563;52.242;9.098;2022-10-16T07:49:56;1.80;;;0.70;;
16892;SDS011;8563;52.242;9.098;2022-10-16T07:52:28;1.70;;;0.73;;
16892;SDS011;8563;52.242;9.098;2022-10-16T07:55:03;1.73;;;0.77;;
16892;SDS011;8563;52.242;9.098;2022-10-16T07:57:36;0.60;;;0.60;;
16892;SDS011;8563;52.242;9.098;2022-10-16T08:00:09;1.17;;;0.60;;
16892;SDS011;8563;52.242;9.098;2022-10-16T08:02:44;1.13;;;0.60;;
16892;SDS011;8563;52.242;9.098;2022-10-16T08:05:17;1.60;;;0.70;;
16892;SDS011;8563;52.242;9.098;2022-10-16T08:07:50;2.17;;;0.60;;
16892;SDS011;8563;52.242;9.098;2022-10-16T08:10:25;2.70;;;0.70;;
16892;SDS011;8563;52.242;9.098;2022-10-16T08:12:58;1.80;;;0.70;;
16892;SDS011;8563;52.242;9.098;2022-10-16T08:15:31;4.53;;;0.70;;
16892;SDS011;8563;52.242;9.098;2022-10-16T08:18:04;1.03;;;0.53;;
16892;SDS011;8563;52.242;9.098;2022-10-16T08:20:54;1.33;;;0.70;;
16892;SDS011;8563;52.242;9.098;2022-10-16T08:24:15;1.83;;;0.60;;
16892;SDS011;8563;52.242;9.098;2022-10-16T08:26:50;1.33;;;0.80;;
16892;SDS011;8563;52.242;9.098;2022-10-16T08:29:22;3.93;;;0.70;;
16892;SDS011;8563;52.242;9.098;2022-10-16T08:31:55;2.07;;;0.70;;
16892;SDS011;8563;52.242;9.098;2022-10-16T08:34:28;3.40;;;0.80;;
16892;SDS011;8563;52.242;9.098;2022-10-16T08:37:01;0.80;;;0.63;;
16892;SDS011;8563;52.242;9.098;2022-10-16T08:39:34;2.13;;;0.83;;
16892;SDS011;8563;52.242;9.098;2022-10-16T08:42:13;2.30;;;0.70;;
16892;SDS011;8563;52.242;9.098;2022-10-16T08:47:41;0.90;;;0.60;;
16892;SDS011;8563;52.242;9.098;2022-10-16T08:50:18;0.80;;;0.70;;
16892;SDS011;8563;52.242;9.098;2022-10-16T08:52:51;1.40;;;0.60;;
16892;SDS011;8563;52.242;9.098;2022-10-16T08:55:29;1.37;;;0.80;;
16892;SDS011;8563;52.242;9.098;2022-10-16T08:58:07;1.73;;;0.60;;
16892;SDS011;8563;52.242;9.098;2022-10-16T09:00:43;2.73;;;0.70;;
16892;SDS011;8563;52.242;9.098;2022-10-16T09:03:19;1.33;;;0.93;;
16892;SDS011;8563;52.242;9.098;2022-10-16T09:06:07;1.87;;;0.90;;
16892;SDS011;8563;52.242;9.098;2022-10-16T09:08:46;3.10;;;0.83;;
16892;SDS011;8563;52.242;9.098;2022-10-16T09:11:22;2.90;;;0.90;;
16892;SDS011;8563;52.242;9.098;2022-10-16T09:13:58;2.17;;;0.70;;
16892;SDS011;8563;52.242;9.098;2022-10-16T09:16:34;0.60;;;0.53;;
16892;SDS011;8563;52.242;9.098;2022-10-16T09:19:10;3.47;;;0.80;;
16892;SDS011;8563;52.242;9.098;2022-10-16T09:21:46;2.97;;;0.70;;
16892;SDS011;8563;52.242;9.098;2022-10-16T09:24:30;2.60;;;0.63;;
16892;SDS011;8563;52.242;9.098;2022-10-16T09:27:23;1.65;;;0.70;;
16892;SDS011;8563;52.242;9.098;2022-10-16T09:30:12;1.30;;;0.73;;
16892;SDS011;8563;52.242;9.098;2022-10-16T09:32:46;2.50;;;0.60;;
16892;SDS011;8563;52.242;9.098;2022-10-16T09:35:20;3.88;;;0.70;;
16892;SDS011;8563;52.242;9.098;2022-10-16T09:37:53;1.85;;;0.85;;
16892;SDS011;8563;52.242;9.098;2022-10-16T09:40:28;2.15;;;0.88;;
16892;SDS011;8563;52.242;9.098;2022-10-16T09:43:02;3.50;;;0.88;;
16892;SDS011;8563;52.242;9.098;2022-10-16T09:45:37;0.65;;;0.50;;
16892;SDS011;8563;52.242;9.098;2022-10-16T09:48:11;3.10;;;1.00;;
16892;SDS011;8563;52.242;9.098;2022-10-16T09:50:54;5.60;;;0.98;;
16892;SDS011;8563;52.242;9.098;2022-10-16T09:53:37;2.72;;;0.70;;
16892;SDS011;8563;52.242;9.098;2022-10-16T09:56:11;2.72;;;0.88;;
16892;SDS011;8563;52.242;9.098;2022-10-16T09:58:49;2.70;;;0.80;;
16892;SDS011;8563;52.242;9.098;2022-10-16T10:01:26;3.15;;;0.85;;
16892;SDS011;8563;52.242;9.098;2022-10-16T10:04:01;2.20;;;0.80;;
16892;SDS011;8563;52.242;9.098;2022-10-16T10:06:34;3.58;;;0.80;;
16892;SDS011;8563;52.242;9.098;2022-10-16T10:09:15;4.00;;;0.93;;
16892;SDS011;8563;52.242;9.098;2022-10-16T10:11:49;1.73;;;0.95;;
16892;SDS011;8563;52.242;9.098;2022-10-16T10:14:25;1.83;;;0.73;;
16892;SDS011;8563;52.242;9.098;2022-10-16T10:17:15;2.53;;;1.00;;
16892;SDS011;8563;52.242;9.098;2022-10-16T10:19:50;1.70;;;1.00;;
16892;SDS011;8563;52.242;9.098;2022-10-16T10:22:24;1.60;;;0.88;;
16892;SDS011;8563;52.242;9.098;2022-10-16T10:27:48;2.00;;;0.80;;
16892;SDS011;8563;52.242;9.098;2022-10-16T10:30:27;1.98;;;0.80;;
16892;SDS011;8563;52.242;9.098;2022-10-16T10:33:12;2.00;;;0.70;;
16892;SDS011;8563;52.242;9.098;2022-10-16T10:35:49;4.05;;;0.90;;
16892;SDS011;8563;52.242;9.098;2022-10-16T10:38:27;1.70;;;0.80;;
16892;SDS011;8563;52.242;9.098;2022-10-16T10:41:06;1.73;;;0.80;;
16892;SDS011;8563;52.242;9.098;2022-10-16T10:43:48;2.65;;;0.70;;
16892;SDS011;8563;52.242;9.098;2022-10-16T10:46:26;3.08;;;0.90;;
16892;SDS011;8563;52.242;9.098;2022-10-16T10:51:54;4.25;;;0.85;;
16892;SDS011;8563;52.242;9.098;2022-10-16T10:54:29;1.50;;;0.70;;
16892;SDS011;8563;52.242;9.098;2022-10-16T10:57:07;3.17;;;0.77;;
16892;SDS011;8563;52.242;9.098;2022-10-16T10:59:49;2.00;;;0.70;;
16892;SDS011;8563;52.242;9.098;2022-10-16T11:02:29;2.38;;;0.70;;
16892;SDS011;8563;52.242;9.098;2022-10-16T11:05:17;1.55;;;0.50;;
16892;SDS011;8563;52.242;9.098;2022-10-16T11:07:54;1.67;;;0.60;;
16892;SDS011;8563;52.242;9.098;2022-10-16T11:10:28;3.20;;;0.70;;
16892;SDS011;8563;52.242;9.098;2022-10-16T11:13:04;2.85;;;1.08;;
16892;SDS011;8563;52.242;9.098;2022-10-16T11:15:41;2.33;;;1.00;;
16892;SDS011;8563;52.242;9.098;2022-10-16T11:18:16;2.63;;;0.85;;
16892;SDS011;8563;52.242;9.098;2022-10-16T11:20:53;3.85;;;1.48;;
16892;SDS011;8563;52.242;9.098;2022-10-16T11:23:28;2.33;;;0.90;;
16892;SDS011;8563;52.242;9.098;2022-10-16T11:26:04;3.70;;;1.13;;
16892;SDS011;8563;52.242;9.098;2022-10-16T11:28:38;3.67;;;0.82;;
16892;SDS011;8563;52.242;9.098;2022-10-16T11:31:14;4.30;;;0.70;;
16892;SDS011;8563;52.242;9.098;2022-10-16T11:33:51;1.35;;;0.63;;
16892;SDS011;8563;52.242;9.098;2022-10-16T11:36:27;3.67;;;0.75;;
16892;SDS011;8563;52.242;9.098;2022-10-16T11:39:07;1.60;;;0.77;;
16892;SDS011;8563;52.242;9.098;2022-10-16T11:41:42;1.58;;;0.60;;
16892;SDS011;8563;52.242;9.098;2022-10-16T11:44:20;2.53;;;0.75;;
16892;SDS011;8563;52.242;9.098;2022-10-16T11:46:59;4.70;;;0.90;;
16892;SDS011;8563;52.242;9.098;2022-10-16T11:49:33;2.35;;;0.60;;
16892;SDS011;8563;52.242;9.098;2022-10-16T11:52:07;1.48;;;0.43;;
16892;SDS011;8563;52.242;9.098;2022-10-16T11:54:47;1.38;;;0.60;;
16892;SDS011;8563;52.242;9.098;2022-10-16T11:57:22;2.83;;;0.70;;
16892;SDS011;8563;52.242;9.098;2022-10-16T11:59:57;4.95;;;0.80;;
16892;SDS011;8563;52.242;9.098;2022-10-16T12:02:33;1.35;;;0.57;;
16892;SDS011;8563;52.242;9.098;2022-10-16T12:05:18;3.30;;;0.77;;
16892;SDS011;8563;52.242;9.098;2022-10-16T12:07:56;1.75;;;0.60;;
16892;SDS011;8563;52.242;9.098;2022-10-16T12:10:34;1.90;;;0.60;;
16892;SDS011;8563;52.242;9.098;2022-10-16T12:16:04;2.47;;;0.60;;
16892;SDS011;8563;52.242;9.098;2022-10-16T12:18:37;0.93;;;0.68;;
16892;SDS011;8563;52.242;9.098;2022-10-16T12:21:10;2.55;;;0.70;;
16892;SDS011;8563;52.242;9.098;2022-10-16T12:23:49;2.22;;;0.80;;
16892;SDS011;8563;52.242;9.098;2022-10-16T12:26:27;3.05;;;0.70;;
16892;SDS011;8563;52.242;9.098;2022-10-16T12:29:11;2.60;;;0.60;;
16892;SDS011;8563;52.242;9.098;2022-10-16T12:31:45;1.83;;;0.70;;
16892;SDS011;8563;52.242;9.098;2022-10-16T12:34:21;2.35;;;0.50;;
16892;SDS011;8563;52.242;9.098;2022-10-16T12:36:54;2.25;;;0.88;;
16892;SDS011;8563;52.242;9.098;2022-10-16T12:39:28;2.78;;;0.73;;
16892;SDS011;8563;52.242;9.098;2022-10-16T12:42:03;1.95;;;0.60;;
16892;SDS011;8563;52.242;9.098;2022-10-16T12:44:36;1.00;;;0.60;;
16892;SDS011;8563;52.242;9.098;2022-10-16T12:47:18;2.97;;;0.80;;
16892;SDS011;8563;52.242;9.098;2022-10-16T12:49:52;2.35;;;0.85;;
16892;SDS011;8563;52.242;9.098;2022-10-16T12:52:27;1.58;;;0.75;;
16892;SDS011;8563;52.242;9.098;2022-10-16T12:55:00;1.33;;;0.60;;
16892;SDS011;8563;52.242;9.098;2022-10-16T12:57:44;1.70;;;0.63;;
16892;SDS011;8563;52.242;9.098;2022-10-16T13:00:21;1.50;;;0.60;;
16892;SDS011;8563;52.242;9.098;2022-10-16T13:03:06;1.85;;;0.60;;
16892;SDS011;8563;52.242;9.098;2022-10-16T13:05:43;2.13;;;0.65;;
16892;SDS011;8563;52.242;9.098;2022-10-16T13:08:23;2.17;;;0.68;;
16892;SDS011;8563;52.242;9.098;2022-10-16T13:11:01;1.77;;;0.82;;
16892;SDS011;8563;52.242;9.098;2022-10-16T13:13:44;2.10;;;0.75;;
16892;SDS011;8563;52.242;9.098;2022-10-16T13:16:22;2.42;;;0.80;;
16892;SDS011;8563;52.242;9.098;2022-10-16T13:19:01;2.05;;;0.95;;
16892;SDS011;8563;52.242;9.098;2022-10-16T13:21:42;3.35;;;1.00;;
16892;SDS011;8563;52.242;9.098;2022-10-16T13:24:23;2.40;;;0.75;;
16892;SDS011;8563;52.242;9.098;2022-10-16T13:26:59;3.80;;;0.80;;
16892;SDS011;8563;52.242;9.098;2022-10-16T13:29:36;1.35;;;0.73;;
16892;SDS011;8563;52.242;9.098;2022-10-16T13:32:12;2.58;;;0.77;;
16892;SDS011;8563;52.242;9.098;2022-10-16T13:34:48;1.77;;;0.68;;
16892;SDS011;8563;52.242;9.098;2022-10-16T13:37:22;1.42;;;0.70;;
16892;SDS011;8563;52.242;9.098;2022-10-16T13:40:02;0.93;;;0.65;;
16892;SDS011;8563;52.242;9.098;2022-10-16T13:42:35;1.48;;;0.93;;
16892;SDS011;8563;52.242;9.098;2022-10-16T13:45:18;3.05;;;0.80;;
16892;SDS011;8563;52.242;9.098;2022-10-16T13:48:01;1.90;;;0.77;;
16892;SDS011;8563;52.242;9.098;2022-10-16T13:50:34;2.50;;;0.50;;
16892;SDS011;8563;52.242;9.098;2022-10-16T13:53:10;2.67;;;0.70;;
16892;SDS011;8563;52.242;9.098;2022-10-16T13:55:48;0.90;;;0.50;;
16892;SDS011;8563;52.242;9.098;2022-10-16T13:58:21;2.13;;;0.60;;
16892;SDS011;8563;52.242;9.098;2022-10-16T14:00:57;1.52;;;0.70;;
16892;SDS011;8563;52.242;9.098;2022-10-16T14:03:31;2.05;;;0.70;;
16892;SDS011;8563;52.242;9.098;2022-10-16T14:06:13;2.05;;;0.60;;
16892;SDS011;8563;52.242;9.098;2022-10-16T14:08:48;2.45;;;0.80;;
16892;SDS011;8563;52.242;9.098;2022-10-16T14:11:23;3.38;;;0.70;;
16892;SDS011;8563;52.242;9.098;2022-10-16T14:13:56;3.92;;;1.02;;
16892;SDS011;8563;52.242;9.098;2022-10-16T14:20:03;1.67;;;0.50;;
16892;SDS011;8563;52.242;9.098;2022-10-16T14:22:36;2.08;;;0.80;;
16892;SDS011;8563;52.242;9.098;2022-10-16T14:25:19;3.50;;;0.90;;
16892;SDS011;8563;52.242;9.098;2022-10-16T14:27:56;1.48;;;0.65;;
16892;SDS011;8563;52.242;9.098;2022-10-16T14:30:30;3.40;;;0.70;;
16892;SDS011;8563;52.242;9.098;2022-10-16T14:33:04;0.90;;;0.60;;
16892;SDS011;8563;52.242;9.098;2022-10-16T14:35:39;2.00;;;0.70;;
16892;SDS011;8563;52.242;9.098;2022-10-16T14:38:16;2.25;;;0.60;;
16892;SDS011;8563;52.242;9.098;2022-10-16T14:40:51;3.35;;;1.10;;
16892;SDS011;8563;52.242;9.098;2022-10-16T14:43:26;1.42;;;0.63;;
16892;SDS011;8563;52.242;9.098;2022-10-16T14:46:02;3.70;;;0.73;;
16892;SDS011;8563;52.242;9.098;2022-10-16T14:48:36;1.98;;;0.63;;
16892;SDS011;8563;52.242;9.098;2022-10-16T14:51:14;3.58;;;0.80;;
16892;SDS011;8563;52.242;9.098;2022-10-16T14:53:49;2.58;;;0.60;;
16892;SDS011;8563;52.242;9.098;2022-10-16T14:56:24;2.08;;;0.70;;
16892;SDS011;8563;52.242;9.098;2022-10-16T14:58:57;6.43;;;0.95;;
16892;SDS011;8563;52.242;9.098;2022-10-16T15:01:31;2.78;;;0.70;;
16892;SDS011;8563;52.242;9.098;2022-10-16T15:04:04;1.17;;;0.70;;
16892;SDS011;8563;52.242;9.098;2022-10-16T15:06:38;2.08;;;0.82;;
16892;SDS011;8563;52.242;9.098;2022-10-16T15:09:12;1.75;;;0.65;;
16892;SDS011;8563;52.242;9.098;2022-10-16T15:11:45;1.52;;;0.88;;
16892;SDS011;8563;52.242;9.098;2022-10-16T15:14:19;2.75;;;0.80;;
16892;SDS011;8563;52.242;9.098;2022-10-16T15:16:55;0.98;;;0.43;;
16892;SDS011;8563;52.242;9.098;2022-10-16T15:19:28;1.38;;;0.55;;
16892;SDS011;8563;52.242;9.098;2022-10-16T15:22:03;2.67;;;0.73;;
16892;SDS011;8563;52.242;9.098;2022-10-16T15:24:36;1.83;;;0.70;;
16892;SDS011;8563;52.242;9.098;2022-10-16T15:27:18;1.27;;;0.50;;
16892;SDS011;8563;52.242;9.098;2022-10-16T15:29:51;1.23;;;0.68;;
16892;SDS011;8563;52.242;9.098;2022-10-16T15:32:24;1.98;;;0.60;;
16892;SDS011;8563;52.242;9.098;2022-10-16T15:34:58;2.90;;;0.80;;
16892;SDS011;8563;52.242;9.098;2022-10-16T15:37:34;4.00;;;1.02;;
16892;SDS011;8563;52.242;9.098;2022-10-16T15:40:09;2.75;;;1.20;;
16892;SDS011;8563;52.242;9.098;2022-10-16T15:42:46;3.85;;;1.10;;
16892;SDS011;8563;52.242;9.098;2022-10-16T15:45:19;3.67;;;1.25;;
16892;SDS011;8563;52.242;9.098;2022-10-16T15:47:55;1.80;;;0.95;;
16892;SDS011;8563;52.242;9.098;2022-10-16T15:50:28;1.98;;;0.70;;
16892;SDS011;8563;52.242;9.098;2022-10-16T15:53:03;0.90;;;0.63;;
16892;SDS011;8563;52.242;9.098;2022-10-16T15:55:36;4.27;;;0.80;;
16892;SDS011;8563;52.242;9.098;2022-10-16T15:58:10;1.92;;;0.95;;
16892;SDS011;8563;52.242;9.098;2022-10-16T16:00:43;2.33;;;0.65;;
16892;SDS011;8563;52.242;9.098;2022-10-16T16:03:16;2.50;;;0.60;;
16892;SDS011;8563;52.242;9.098;2022-10-16T16:05:49;3.17;;;0.70;;
16892;SDS011;8563;52.242;9.098;2022-10-16T16:08:24;1.67;;;0.85;;